Time;durP1;ratioP1;P1;durP2;ratioP2;P2;SDS_P1;SDS_P2;PMS_P1;PMS_P2;Temp;Humidity;BMP_temperature;BMP_pressure;BME280_temperature;BME280_humidity;BME280_pressure;Samples;Min_cycle;Max_cycle;Signal;HPM_P1;HPM_P2
2022/08/09 00:00:24;;;;;;;11.13;7.60;;;14.30;99.90;;;;;;4996549;28;20053;-92
2022/08/09 00:02:56;;;;;;;9.77;7.57;;;15.10;99.90;;;;;;4983669;28;20042;-92
2022/08/09 00:05:24;;;;;;;9.52;8.15;;;14.10;99.90;;;;;;5000324;28;20056;-92
2022/08/09 00:07:59;;;;;;;8.88;7.78;;;14.00;99.90;;;;;;5016112;28;20053;-92
2022/08/09 00:10:32;;;;;;;11.63;8.05;;;14.00;99.90;;;;;;4985387;28;20037;-93
2022/08/09 00:13:08;;;;;;;;;;;;;;;;;;;;;
2022/08/09 00:15:39;;;;;;;10.80;8.27;;;14.10;99.90;;;;;;5017375;28;20049;-92
2022/08/09 00:18:04;;;;;;;11.05;7.63;;;14.10;99.90;;;;;;5014099;28;20041;-91
2022/08/09 00:20:30;;;;;;;10.90;7.53;;;14.00;99.90;;;;;;5013750;28;20045;-91
2022/08/09 00:22:59;;;;;;;12.50;8.50;;;13.90;99.90;;;;;;5014317;28;20076;-92
2022/08/09 00:25:31;;;;;;;9.35;8.20;;;14.00;99.90;;;;;;4998345;28;20053;-91
2022/08/09 00:28:05;;;;;;;10.18;7.78;;;14.00;99.90;;;;;;5026893;28;20485;-89
2022/08/09 00:30:33;;;;;;;9.93;7.87;;;13.80;99.90;;;;;;5015376;28;20386;-90
2022/08/09 00:33:02;;;;;;;11.55;7.60;;;13.80;99.90;;;;;;5015493;28;20671;-92
2022/08/09 00:35:27;;;;;;;11.93;8.20;;;13.90;99.90;;;;;;4999019;28;20059;-91
2022/08/09 00:37:53;;;;;;;11.98;8.02;;;13.70;99.90;;;;;;5014650;28;20116;-91
2022/08/09 00:40:19;;;;;;;10.55;7.50;;;13.80;99.90;;;;;;5014191;28;20819;-91
2022/08/09 00:42:45;;;;;;;9.88;7.30;;;13.80;99.90;;;;;;4994454;28;20482;-90
2022/08/09 00:45:13;;;;;;;12.35;7.38;;;13.70;99.90;;;;;;4977184;28;20038;-92
2022/08/09 00:47:39;;;;;;;8.77;7.43;;;13.50;99.90;;;;;;4990812;28;20080;-92
2022/08/09 00:50:05;;;;;;;9.80;7.65;;;13.70;99.90;;;;;;5012589;28;20108;-91
2022/08/09 00:52:31;;;;;;;8.30;6.70;;;13.80;99.90;;;;;;4982576;28;20673;-92
2022/08/09 00:55:00;;;;;;;10.77;7.38;;;13.70;99.90;;;;;;5017684;28;20072;-91
2022/08/09 00:57:27;;;;;;;8.93;7.38;;;13.70;99.90;;;;;;5000247;28;20084;-91
2022/08/09 00:59:52;;;;;;;11.70;7.20;;;13.70;99.90;;;;;;5000894;28;20080;-92
2022/08/09 01:02:20;;;;;;;9.20;7.25;;;13.70;99.90;;;;;;5016882;28;20150;-90
2022/08/09 01:05:07;;;;;;;13.52;7.57;;;12.80;99.90;;;;;;5017153;28;20045;-93
2022/08/09 01:07:54;;;;;;;9.73;7.22;;;13.70;99.90;;;;;;4985692;28;20057;-91
2022/08/09 01:10:31;;;;;;;8.85;7.60;;;13.70;99.90;;;;;;5017041;28;20120;-91
2022/08/09 01:13:02;;;;;;;13.30;8.77;;;13.70;99.90;;;;;;4988313;28;20474;-91
2022/08/09 01:15:29;;;;;;;8.63;7.18;;;13.60;99.90;;;;;;4985585;28;20084;-91
2022/08/09 01:18:01;;;;;;;8.77;6.82;;;13.60;99.90;;;;;;4966527;28;20057;-93
2022/08/09 01:20:50;;;;;;;12.13;6.97;;;13.60;99.90;;;;;;4969638;28;20045;-92
2022/08/09 01:23:43;;;;;;;10.90;6.82;;;13.60;99.90;;;;;;4970212;28;20049;-89
2022/08/09 01:26:28;;;;;;;8.40;6.65;;;13.50;99.90;;;;;;5016985;28;20053;-90
2022/08/09 01:28:54;;;;;;;;;;;13.50;99.90;;;;;;5034456;28;20862;-91
2022/08/09 01:31:21;;;;;;;9.35;6.40;;;13.50;99.90;;;;;;4984917;28;20296;-91
2022/08/09 01:33:47;;;;;;;8.43;6.38;;;13.50;99.90;;;;;;4987626;28;20088;-91
2022/08/09 01:36:14;;;;;;;8.30;6.38;;;13.50;99.90;;;;;;4984710;28;20081;-90
2022/08/09 01:38:41;;;;;;;9.02;6.40;;;13.50;99.90;;;;;;4969095;28;20617;-92
2022/08/09 01:41:11;;;;;;;9.55;7.30;;;13.50;99.90;;;;;;4985862;28;20080;-91
2022/08/09 01:43:38;;;;;;;9.70;7.18;;;13.50;99.90;;;;;;4985611;28;20080;-91
2022/08/09 01:46:03;;;;;;;9.35;6.85;;;13.50;99.90;;;;;;5017913;28;20132;-90
2022/08/09 01:48:29;;;;;;;9.88;6.57;;;13.40;99.90;;;;;;4979906;28;20125;-91
2022/08/09 01:50:57;;;;;;;7.32;6.25;;;13.40;99.90;;;;;;4982625;28;20445;-92
2022/08/09 01:53:23;;;;;;;9.45;6.38;;;13.40;99.90;;;;;;4969974;28;20468;-92
2022/08/09 01:55:49;;;;;;;11.18;7.28;;;13.30;99.90;;;;;;4969840;28;20049;-92
2022/08/09 01:58:15;;;;;;;8.73;6.97;;;13.30;99.90;;;;;;4969100;28;20046;-92
2022/08/09 02:00:45;;;;;;;9.15;6.72;;;13.30;99.90;;;;;;4970207;28;20037;-91
2022/08/09 02:03:11;;;;;;;13.32;8.02;;;13.30;99.90;;;;;;4985932;28;20131;-91
2022/08/09 02:05:36;;;;;;;9.20;7.03;;;13.30;99.90;;;;;;5005724;28;20100;-91
2022/08/09 02:08:07;;;;;;;7.88;6.50;;;13.30;99.90;;;;;;4998102;28;20054;-91
2022/08/09 02:10:37;;;;;;;11.02;8.30;;;13.30;99.90;;;;;;4982024;28;20386;-91
2022/08/09 02:13:04;;;;;;;14.13;8.27;;;13.30;99.90;;;;;;5001500;28;20057;-91
2022/08/09 02:15:30;;;;;;;11.85;8.38;;;13.30;99.90;;;;;;5000059;28;20371;-90
2022/08/09 02:17:55;;;;;;;10.40;8.48;;;13.30;99.90;;;;;;5000464;28;20091;-90
2022/08/09 02:20:21;;;;;;;9.85;7.50;;;13.30;99.90;;;;;;5016284;28;20042;-90
2022/08/09 02:22:55;;;;;;;11.05;7.28;;;13.30;99.90;;;;;;5033302;28;20103;-90
2022/08/09 02:25:27;;;;;;;10.43;8.02;;;13.30;99.90;;;;;;4979972;28;20050;-89
2022/08/09 02:27:58;;;;;;;8.50;6.68;;;13.30;99.90;;;;;;4992946;28;20053;-90
2022/08/09 02:30:25;;;;;;;11.43;8.27;;;13.20;99.90;;;;;;5015742;28;20049;-90
2022/08/09 02:32:50;;;;;;;13.93;8.60;;;13.20;99.90;;;;;;5015324;28;20424;-90
2022/08/09 02:35:21;;;;;;;11.77;9.15;;;13.20;99.90;;;;;;5015248;28;20050;-93
2022/08/09 02:37:49;;;;;;;11.63;8.27;;;13.20;99.90;;;;;;4996798;28;20049;-91
2022/08/09 02:40:16;;;;;;;15.07;10.13;;;13.20;99.90;;;;;;4981278;28;20061;-90
2022/08/09 02:42:43;;;;;;;13.38;9.23;;;13.20;99.90;;;;;;4981299;28;20089;-92
2022/08/09 02:45:14;;;;;;;15.85;10.45;;;13.20;99.90;;;;;;5015700;28;20056;-91
2022/08/09 02:47:40;;;;;;;16.83;11.85;;;13.20;99.90;;;;;;4983249;28;20045;-91
2022/08/09 02:50:15;;;;;;;15.23;9.65;;;13.20;99.90;;;;;;5015485;28;20049;-91
2022/08/09 02:52:52;;;;;;;12.15;9.57;;;13.20;99.90;;;;;;5015777;28;20050;-91
2022/08/09 02:55:21;;;;;;;13.45;10.02;;;13.10;99.90;;;;;;4999566;28;20096;-92
2022/08/09 02:57:48;;;;;;;13.02;9.07;;;13.10;99.90;;;;;;4984171;28;20046;-91
2022/08/09 03:00:14;;;;;;;12.40;9.70;;;13.10;99.90;;;;;;4999029;28;20053;-90
2022/08/09 03:02:42;;;;;;;17.33;12.27;;;13.10;99.90;;;;;;4999086;28;20099;-92
2022/08/09 03:05:11;;;;;;;16.48;10.10;;;13.10;99.90;;;;;;4983247;28;20140;-90
2022/08/09 03:07:37;;;;;;;14.18;9.93;;;13.00;99.90;;;;;;4984062;28;20045;-91
2022/08/09 03:10:03;;;;;;;14.05;10.05;;;13.00;99.90;;;;;;4967174;28;20095;-91
2022/08/09 03:12:28;;;;;;;14.48;9.85;;;13.00;99.90;;;;;;5016144;28;20053;-91
2022/08/09 03:14:54;;;;;;;17.02;11.27;;;13.00;99.90;;;;;;4998583;28;20049;-91
2022/08/09 03:17:20;;;;;;;19.70;11.23;;;13.00;99.90;;;;;;4979713;28;20055;-92
2022/08/09 03:19:46;;;;;;;20.40;11.48;;;13.00;99.90;;;;;;4967173;28;20037;-91
2022/08/09 03:22:11;;;;;;;14.02;9.65;;;13.00;99.90;;;;;;4987359;28;20036;-91
2022/08/09 03:24:37;;;;;;;15.75;9.95;;;13.00;99.90;;;;;;5006832;28;20102;-91
2022/08/09 03:27:04;;;;;;;19.70;10.68;;;12.90;99.90;;;;;;5007291;28;20045;-91
2022/08/09 03:29:29;;;;;;;19.10;11.07;;;13.00;99.90;;;;;;5001889;28;20072;-91
2022/08/09 03:31:56;;;;;;;17.98;12.20;;;12.90;99.90;;;;;;4989403;28;20021;-92
2022/08/09 03:34:25;;;;;;;24.52;8.77;;;12.90;99.90;;;;;;4995470;28;20060;-92
2022/08/09 03:36:57;;;;;;;13.98;9.25;;;12.70;99.90;;;;;;4970074;28;20041;-92
2022/08/09 03:39:24;;;;;;;20.17;8.60;;;12.90;99.90;;;;;;4976433;28;20042;-92
2022/08/09 03:41:53;;;;;;;13.15;7.97;;;12.70;99.90;;;;;;4983877;28;20103;-93
2022/08/09 03:44:21;;;;;;;12.18;7.78;;;12.80;99.90;;;;;;4999070;28;20060;-90
2022/08/09 03:46:49;;;;;;;20.15;6.18;;;12.60;99.90;;;;;;4982745;28;20106;-91
2022/08/09 03:49:15;;;;;;;23.20;5.32;;;11.70;99.90;;;;;;4982523;28;20113;-90
2022/08/09 03:51:43;;;;;;;17.52;5.25;;;12.70;99.90;;;;;;4978524;28;20046;-92
2022/08/09 03:54:09;;;;;;;22.40;4.97;;;12.70;99.90;;;;;;4981738;28;20057;-91
2022/08/09 03:56:35;;;;;;;15.70;5.32;;;12.60;99.90;;;;;;4997682;28;20080;-90
2022/08/09 03:59:01;;;;;;;10.20;5.45;;;12.70;99.90;;;;;;4982328;28;20041;-91
2022/08/09 04:01:26;;;;;;;21.98;5.20;;;12.50;99.90;;;;;;4966600;28;20049;-93
2022/08/09 04:03:52;;;;;;;12.32;4.30;;;12.60;99.90;;;;;;4963126;28;20052;-91
2022/08/09 04:06:21;;;;;;;11.13;4.78;;;12.70;99.90;;;;;;5029094;28;20053;-91
2022/08/09 04:08:46;;;;;;;39.50;4.97;;;12.40;99.90;;;;;;5020413;28;20056;-90
2022/08/09 04:11:12;;;;;;;17.75;5.78;;;11.50;99.90;;;;;;5020283;28;20229;-90
2022/08/09 04:13:41;;;;;;;12.98;5.07;;;12.40;99.90;;;;;;5010370;28;20136;-91
2022/08/09 04:16:09;;;;;;;7.03;5.75;;;12.70;99.90;;;;;;4986490;28;20046;-93
2022/08/09 04:18:35;;;;;;;12.30;5.43;;;12.50;99.90;;;;;;4990635;28;20059;-91
2022/08/09 04:21:01;;;;;;;10.27;5.35;;;12.60;99.90;;;;;;4993142;28;20093;-91
2022/08/09 04:23:27;;;;;;;12.13;5.78;;;12.70;99.90;;;;;;5004832;28;20057;-90
2022/08/09 04:25:53;;;;;;;86.93;6.68;;;12.60;99.90;;;;;;5004064;28;20309;-93
2022/08/09 04:28:21;;;;;;;9.45;4.90;;;12.60;99.90;;;;;;4984790;28;20049;-91
2022/08/09 04:30:46;;;;;;;5.68;4.60;;;12.80;99.90;;;;;;4981482;28;20058;-91
2022/08/09 04:33:12;;;;;;;6.57;4.60;;;12.70;99.90;;;;;;5017451;28;20122;-94
2022/08/09 04:35:40;;;;;;;9.80;4.50;;;12.70;99.90;;;;;;5000955;28;20046;-91
2022/08/09 04:38:07;;;;;;;8.13;4.97;;;12.80;99.90;;;;;;5018164;28;20045;-92
2022/08/09 04:40:48;;;;;;;11.10;5.25;;;12.90;99.90;;;;;;5016985;28;20072;-89
2022/08/09 04:43:16;;;;;;;8.73;5.15;;;12.80;99.90;;;;;;5018738;28;20535;-91
2022/08/09 04:45:42;;;;;;;7.03;4.40;;;13.10;99.90;;;;;;5000521;28;20045;-93
2022/08/09 04:48:16;;;;;;;8.88;4.93;;;13.30;99.90;;;;;;5001233;28;20056;-93
2022/08/09 04:50:43;;;;;;;13.90;4.53;;;13.40;99.90;;;;;;5001237;28;20057;-92
2022/08/09 04:53:09;;;;;;;9.10;3.90;;;13.40;99.90;;;;;;5001372;28;20053;-91
2022/08/09 04:55:36;;;;;;;7.45;4.10;;;13.70;99.90;;;;;;5033571;28;20049;-91
2022/08/09 04:58:02;;;;;;;14.15;4.20;;;13.80;99.90;;;;;;5017392;28;20061;-92
2022/08/09 05:00:28;;;;;;;5.65;3.72;;;13.80;99.90;;;;;;5000761;28;20132;-92
2022/08/09 05:02:55;;;;;;;7.85;3.60;;;13.90;99.90;;;;;;5016677;28;20548;-91
2022/08/09 05:05:26;;;;;;;5.85;3.85;;;14.30;99.90;;;;;;5016793;28;20057;-93
2022/08/09 05:07:54;;;;;;;4.15;3.65;;;14.80;99.90;;;;;;5017808;28;20068;-93
2022/08/09 05:10:20;;;;;;;3.70;3.30;;;15.40;99.90;;;;;;4999952;28;20049;-93
2022/08/09 05:12:55;;;;;;;4.93;3.58;;;15.50;99.90;;;;;;4996927;28;20049;-92
2022/08/09 05:15:23;;;;;;;3.35;3.05;;;16.80;99.90;;;;;;4986921;28;20046;-94
2022/08/09 05:17:49;;;;;;;3.90;3.10;;;17.10;99.90;;;;;;5000810;28;20124;-94
2022/08/09 05:20:20;;;;;;;3.63;3.08;;;17.70;99.90;;;;;;4998115;28;20077;-92
2022/08/09 05:22:51;;;;;;;3.53;3.22;;;17.80;99.90;;;;;;4996281;28;20073;-94
2022/08/09 05:25:17;;;;;;;4.82;2.70;;;18.70;99.90;;;;;;4984445;28;20100;-91
2022/08/09 05:27:49;;;;;;;3.53;3.00;;;19.20;99.90;;;;;;5015590;28;20432;-92
2022/08/09 05:30:24;;;;;;;4.05;3.65;;;19.50;99.90;;;;;;5016216;28;20549;-93
2022/08/09 05:32:53;;;;;;;4.43;3.83;;;19.90;99.90;;;;;;5015995;28;20049;-92
2022/08/09 05:35:19;;;;;;;4.47;3.63;;;20.40;99.90;;;;;;5016697;28;20038;-94
2022/08/09 05:37:47;;;;;;;5.05;4.07;;;20.50;99.90;;;;;;4980486;28;20099;-93
2022/08/09 05:40:15;;;;;;;3.53;3.22;;;20.30;99.90;;;;;;5017361;28;20049;-93
2022/08/09 05:42:44;;;;;;;4.50;3.30;;;20.20;99.90;;;;;;5017584;28;20037;-91
2022/08/09 05:45:12;;;;;;;4.00;3.55;;;21.40;99.90;;;;;;4999247;28;20136;-93
2022/08/09 05:47:41;;;;;;;3.67;3.33;;;21.50;99.90;;;;;;5016696;28;20045;-92
2022/08/09 05:50:09;;;;;;;4.00;3.60;;;21.20;99.90;;;;;;5000224;28;20124;-91
2022/08/09 05:52:37;;;;;;;5.47;4.10;;;22.40;99.90;;;;;;5017165;28;20088;-91
2022/08/09 05:55:06;;;;;;;5.55;4.32;;;22.50;99.90;;;;;;5016684;28;20226;-91
2022/08/09 05:57:42;;;;;;;5.78;4.10;;;22.70;99.90;;;;;;5000342;28;20092;-91
2022/08/09 06:00:27;;;;;;;5.15;3.97;;;22.60;99.90;;;;;;5001542;28;20054;-89
2022/08/09 06:02:55;;;;;;;5.93;3.97;;;23.00;99.90;;;;;;4999619;28;20252;-89
2022/08/09 06:05:24;;;;;;;4.15;3.75;;;22.50;99.90;;;;;;4991532;28;20414;-86
2022/08/09 06:07:57;;;;;;;4.47;3.65;;;22.10;99.90;;;;;;4980201;28;20116;-92
2022/08/09 06:10:36;;;;;;;;;;;22.10;99.90;;;;;;4982323;28;20050;-90
2022/08/09 06:13:09;;;;;;;6.25;4.07;;;21.70;99.90;;;;;;4966887;28;19932;-91
2022/08/09 06:15:35;;;;;;;6.53;4.50;;;21.90;99.90;;;;;;4966450;28;20477;-89
2022/08/09 06:18:03;;;;;;;5.05;4.43;;;23.30;99.90;;;;;;4949382;28;20057;-90
2022/08/09 06:20:34;;;;;;;4.90;4.13;;;24.00;99.90;;;;;;4965881;28;20081;-90
2022/08/09 06:23:00;;;;;;;6.35;4.47;;;23.60;99.90;;;;;;4965468;28;20155;-90
2022/08/09 06:25:26;;;;;;;4.07;3.67;;;23.60;99.90;;;;;;4981124;28;20499;-90
2022/08/09 06:27:54;;;;;;;4.40;4.00;;;23.80;99.90;;;;;;4978728;28;20117;-92
2022/08/09 06:30:22;;;;;;;6.00;3.90;;;23.50;99.90;;;;;;4983305;28;20046;-90
2022/08/09 06:32:51;;;;;;;7.50;4.38;;;24.70;99.90;;;;;;5000761;28;20468;-90
2022/08/09 06:35:22;;;;;;;6.13;4.00;;;25.20;99.90;;;;;;5001066;28;20068;-91
2022/08/09 06:37:48;;;;;;;5.05;3.83;;;25.00;99.90;;;;;;4978630;28;20043;-88
2022/08/09 06:40:14;;;;;;;6.63;4.20;;;24.80;99.90;;;;;;4988258;28;20119;-88
2022/08/09 06:42:48;;;;;;;5.38;4.00;;;24.40;99.90;;;;;;4949625;28;20070;-90
2022/08/09 06:45:14;;;;;;;5.03;3.88;;;24.90;99.90;;;;;;4950417;28;20048;-92
2022/08/09 06:47:40;;;;;;;6.53;3.75;;;24.80;99.90;;;;;;4980237;28;20050;-90
2022/08/09 06:50:09;;;;;;;5.68;4.13;;;25.60;99.90;;;;;;4965263;28;20046;-87
2022/08/09 06:52:44;;;;;;;7.07;4.00;;;25.50;99.90;;;;;;4974759;28;20041;-90
2022/08/09 06:55:22;;;;;;;5.25;3.65;;;25.40;99.90;;;;;;4981783;28;20645;-91
2022/08/09 06:57:51;;;;;;;4.30;3.90;;;24.60;99.90;;;;;;4964339;28;20038;-92
2022/08/09 07:00:17;;;;;;;4.45;4.05;;;25.90;99.90;;;;;;4962156;28;20042;-90
2022/08/09 07:02:50;;;;;;;7.80;4.00;;;25.30;99.90;;;;;;4978401;28;20429;-91
2022/08/09 07:05:18;;;;;;;4.22;3.60;;;25.40;99.90;;;;;;4982738;28;20694;-91
2022/08/09 07:07:44;;;;;;;4.88;3.60;;;25.90;99.90;;;;;;5012879;28;20045;-91
2022/08/09 07:10:10;;;;;;;5.18;4.07;;;26.30;99.90;;;;;;4986540;28;20076;-90
2022/08/09 07:12:39;;;;;;;4.38;3.42;;;26.20;99.90;;;;;;5011143;28;20113;-91
2022/08/09 07:15:14;;;;;;;3.60;3.30;;;26.20;99.90;;;;;;4984246;28;20054;-91
2022/08/09 07:17:42;;;;;;;3.45;3.13;;;26.00;99.90;;;;;;4969136;28;20052;-90
2022/08/09 07:20:18;;;;;;;5.47;3.38;;;26.50;99.90;;;;;;4983590;28;20045;-90
2022/08/09 07:22:45;;;;;;;4.10;2.90;;;26.10;99.90;;;;;;4989618;28;20037;-89
2022/08/09 07:25:25;;;;;;;4.57;3.50;;;27.10;99.90;;;;;;4998260;28;20052;-93
2022/08/09 07:27:54;;;;;;;2.92;1.80;;;28.00;99.90;;;;;;5002035;28;20045;-90
2022/08/09 07:30:22;;;;;;;3.20;1.60;;;28.40;99.90;;;;;;4999351;28;20037;-89
2022/08/09 07:32:51;;;;;;;3.92;1.52;;;28.00;99.90;;;;;;5015749;28;20045;-90
2022/08/09 07:35:19;;;;;;;2.03;1.75;;;27.00;99.90;;;;;;5016209;28;20123;-90
2022/08/09 07:37:47;;;;;;;2.80;1.77;;;27.40;99.90;;;;;;4999939;28;20049;-88
2022/08/09 07:40:17;;;;;;;1.90;1.60;;;27.30;99.90;;;;;;5013006;28;20131;-86
2022/08/09 07:42:52;;;;;;;2.65;1.75;;;26.90;99.90;;;;;;4982147;28;20418;-86
2022/08/09 07:45:24;;;;;;;2.22;1.42;;;27.60;99.90;;;;;;4974507;28;20120;-87
2022/08/09 07:48:03;;;;;;;1.38;1.27;;;26.90;99.90;;;;;;5018138;28;20045;-89
2022/08/09 07:50:29;;;;;;;1.58;1.20;;;25.60;99.90;;;;;;5011287;28;20441;-89
2022/08/09 07:52:56;;;;;;;2.80;1.73;;;25.90;99.90;;;;;;4994651;28;20049;-87
2022/08/09 07:55:22;;;;;;;1.55;1.20;;;25.40;99.90;;;;;;4994935;28;20103;-88
2022/08/09 07:57:50;;;;;;;1.60;1.10;;;24.00;99.90;;;;;;4991095;28;20045;-89
2022/08/09 08:00:19;;;;;;;2.80;1.30;;;23.60;99.90;;;;;;4987869;28;20041;-89
2022/08/09 08:02:45;;;;;;;3.25;1.23;;;22.80;99.90;;;;;;4988573;28;20041;-87
2022/08/09 08:05:12;;;;;;;1.95;1.23;;;23.20;99.90;;;;;;5011452;28;20611;-88
2022/08/09 08:07:37;;;;;;;4.47;1.13;;;23.80;99.90;;;;;;5011360;28;20807;-88
2022/08/09 08:10:04;;;;;;;1.10;1.10;;;24.20;99.90;;;;;;5009368;28;20045;-88
2022/08/09 08:12:30;;;;;;;1.55;1.08;;;25.20;99.90;;;;;;5013647;28;20054;-91
2022/08/09 08:14:56;;;;;;;1.98;1.17;;;24.80;99.90;;;;;;5014174;28;20474;-91
2022/08/09 08:17:21;;;;;;;2.20;1.20;;;24.80;99.90;;;;;;5006347;28;20060;-88
2022/08/09 08:19:47;;;;;;;1.13;1.02;;;24.10;99.90;;;;;;4991294;28;20048;-89
2022/08/09 08:22:12;;;;;;;1.67;1.02;;;24.60;99.90;;;;;;5014621;28;20124;-91
2022/08/09 08:24:38;;;;;;;1.73;0.82;;;25.20;99.90;;;;;;4991759;28;20061;-89
2022/08/09 08:27:04;;;;;;;0.68;0.68;;;25.90;99.90;;;;;;5009629;28;20045;-91
2022/08/09 08:29:32;;;;;;;1.98;1.00;;;26.00;99.90;;;;;;5017345;28;20041;-93
2022/08/09 08:32:00;;;;;;;1.48;0.85;;;26.20;99.90;;;;;;5000911;28;20379;-91
2022/08/09 08:34:26;;;;;;;1.10;0.80;;;26.20;99.90;;;;;;5033142;28;20569;-90
2022/08/09 08:36:52;;;;;;;0.60;0.60;;;25.70;99.90;;;;;;5016840;28;20048;-92
2022/08/09 08:39:17;;;;;;;1.02;0.90;;;26.70;99.90;;;;;;5016162;28;20120;-88
2022/08/09 08:41:43;;;;;;;0.95;0.70;;;26.90;99.90;;;;;;5015074;28;20505;-89
2022/08/09 08:44:09;;;;;;;2.33;0.70;;;26.90;99.90;;;;;;4999304;28;20050;-89
2022/08/09 08:46:39;;;;;;;1.45;0.65;;;27.00;99.90;;;;;;5015985;28;20045;-91
2022/08/09 08:49:08;;;;;;;0.70;0.70;;;27.30;99.40;;;;;;5021638;28;20049;-93
2022/08/09 08:51:33;;;;;;;1.20;0.80;;;27.30;99.60;;;;;;5000935;28;20053;-92
2022/08/09 08:54:05;;;;;;;0.75;0.70;;;26.60;99.80;;;;;;5016066;28;20529;-91
2022/08/09 08:56:38;;;;;;;0.88;0.80;;;26.80;99.90;;;;;;4998472;28;20038;-92
2022/08/09 08:59:08;;;;;;;1.08;0.88;;;27.10;99.30;;;;;;5016370;28;20081;-90
2022/08/09 09:01:39;;;;;;;4.68;0.80;;;27.40;98.90;;;;;;5032393;28;20057;-88
2022/08/09 09:04:08;;;;;;;1.17;0.70;;;27.20;99.50;;;;;;5032627;28;20054;-88
2022/08/09 09:06:35;;;;;;;1.00;0.88;;;27.20;99.70;;;;;;5015920;28;20062;-87
2022/08/09 09:09:01;;;;;;;1.75;0.70;;;27.00;99.30;;;;;;5017038;28;20049;-89
2022/08/09 09:11:28;;;;;;;1.85;0.70;;;27.60;99.20;;;;;;4999726;28;20054;-89
2022/08/09 09:13:54;;;;;;;2.35;0.70;;;28.10;98.90;;;;;;5016192;28;20132;-88
2022/08/09 09:16:20;;;;;;;0.60;0.60;;;28.10;99.00;;;;;;5016545;28;20060;-88
2022/08/09 09:18:45;;;;;;;0.68;0.60;;;27.40;98.80;;;;;;5015805;28;20049;-88
2022/08/09 09:21:11;;;;;;;0.70;0.70;;;27.40;98.80;;;;;;5015790;28;20045;-87
2022/08/09 09:23:44;;;;;;;0.80;0.70;;;27.30;99.10;;;;;;5015354;28;20133;-87
2022/08/09 09:26:10;;;;;;;2.47;0.90;;;27.30;99.20;;;;;;5016754;28;20049;-88
2022/08/09 09:28:36;;;;;;;0.95;0.90;;;26.90;99.00;;;;;;5015891;28;20129;-92
2022/08/09 09:31:02;;;;;;;0.70;0.70;;;26.40;99.60;;;;;;5018944;28;20135;-94
2022/08/09 09:33:34;;;;;;;1.50;0.80;;;27.10;99.00;;;;;;5011832;28;20113;-93
2022/08/09 09:36:02;;;;;;;0.75;0.65;;;27.00;99.10;;;;;;5034897;28;20357;-90
2022/08/09 09:38:48;;;;;;;0.75;0.75;;;27.20;98.40;;;;;;5032399;28;20037;-90
2022/08/09 09:41:22;;;;;;;0.77;0.77;;;27.50;99.00;;;;;;5033727;28;20109;-92
2022/08/09 09:43:49;;;;;;;1.17;0.90;;;26.80;99.10;;;;;;5033310;28;20025;-92
2022/08/09 09:46:15;;;;;;;0.85;0.75;;;27.20;99.00;;;;;;5034197;28;20161;-91
2022/08/09 09:48:58;;;;;;;0.60;0.60;;;27.40;99.20;;;;;;4998458;28;20045;-93
2022/08/09 09:51:25;;;;;;;0.70;0.70;;;27.20;98.90;;;;;;5014259;28;20053;-91
2022/08/09 09:54:09;;;;;;;1.10;1.00;;;27.50;98.60;;;;;;4986968;28;20072;-93
2022/08/09 09:56:40;;;;;;;0.88;0.80;;;27.00;99.00;;;;;;5016153;28;20053;-92
2022/08/09 09:59:06;;;;;;;0.75;0.73;;;27.40;99.30;;;;;;5016974;28;20045;-89
2022/08/09 10:01:32;;;;;;;1.38;0.80;;;27.30;99.30;;;;;;5016859;28;20477;-92
2022/08/09 10:03:58;;;;;;;1.25;0.90;;;26.80;99.70;;;;;;5015868;28;20091;-89
2022/08/09 10:06:25;;;;;;;1.40;0.90;;;27.50;99.70;;;;;;5014734;28;20057;-91
2022/08/09 10:08:51;;;;;;;0.70;0.70;;;26.80;99.30;;;;;;5016480;28;20061;-91
2022/08/09 10:11:21;;;;;;;6.82;1.00;;;26.80;99.60;;;;;;5000195;28;20052;-89
2022/08/09 10:13:48;;;;;;;0.70;0.70;;;27.10;99.10;;;;;;5000154;28;20116;-91
2022/08/09 10:16:14;;;;;;;1.35;0.80;;;27.00;99.20;;;;;;5036123;28;20132;-91
2022/08/09 10:18:49;;;;;;;2.47;0.82;;;27.10;99.10;;;;;;5021766;28;20045;-91
2022/08/09 10:21:15;;;;;;;0.93;0.80;;;26.70;99.50;;;;;;5020845;28;20061;-91
2022/08/09 10:23:41;;;;;;;0.95;0.93;;;26.50;99.40;;;;;;5019489;28;20137;-90
2022/08/09 10:26:08;;;;;;;0.88;0.80;;;27.10;99.90;;;;;;5017710;28;20124;-90
2022/08/09 10:28:34;;;;;;;0.88;0.80;;;27.20;99.80;;;;;;5016846;28;20064;-90
2022/08/09 10:31:00;;;;;;;0.70;0.70;;;27.80;99.30;;;;;;5022080;28;20494;-90
2022/08/09 10:33:25;;;;;;;1.45;0.93;;;27.50;98.80;;;;;;5020411;28;20052;-90
2022/08/09 10:35:51;;;;;;;0.70;0.70;;;27.30;99.30;;;;;;5005162;28;20144;-91
2022/08/09 10:38:17;;;;;;;1.52;0.93;;;27.20;98.80;;;;;;5018296;28;20045;-92
2022/08/09 10:40:44;;;;;;;1.35;0.80;;;26.80;99.40;;;;;;5017409;28;20052;-91
2022/08/09 10:43:09;;;;;;;0.70;0.70;;;26.60;99.70;;;;;;4999900;28;20060;-89
2022/08/09 10:45:35;;;;;;;0.77;0.77;;;27.30;99.30;;;;;;4999422;28;20405;-90
2022/08/09 10:48:03;;;;;;;0.98;0.85;;;27.40;99.30;;;;;;5014618;28;20415;-91
2022/08/09 10:53:51;;;;;;;2.35;0.90;;;27.20;99.70;;;;;;5017646;28;20057;-92
2022/08/09 10:56:23;;;;;;;0.70;0.70;;;27.00;99.20;;;;;;4998600;28;20052;-91
2022/08/09 10:58:54;;;;;;;0.80;0.80;;;26.60;99.80;;;;;;5016564;28;20041;-90
2022/08/09 11:01:31;;;;;;;0.75;0.75;;;27.20;99.70;;;;;;4998914;28;20103;-91
2022/08/09 11:04:20;;;;;;;0.80;0.80;;;27.30;99.10;;;;;;5024058;28;20045;-92
2022/08/09 11:07:06;;;;;;;0.85;0.80;;;27.20;99.00;;;;;;5039240;28;20405;-90
2022/08/09 11:09:38;;;;;;;1.02;0.88;;;27.50;99.30;;;;;;5020167;28;20042;-91
2022/08/09 11:12:11;;;;;;;0.93;0.60;;;27.50;99.10;;;;;;5031562;28;20045;-89
2022/08/09 11:14:38;;;;;;;0.90;0.70;;;27.10;99.20;;;;;;5031502;28;20450;-88
2022/08/09 11:17:13;;;;;;;1.20;0.60;;;27.00;99.20;;;;;;5014814;28;20136;-90
2022/08/09 11:20:06;;;;;;;0.63;0.63;;;26.50;99.50;;;;;;5031111;28;20099;-88
2022/08/09 11:22:43;;;;;;;1.98;0.93;;;26.70;98.90;;;;;;5016280;28;20149;-89
2022/08/09 11:25:20;;;;;;;1.25;0.90;;;26.30;99.90;;;;;;5031232;28;20053;-88
2022/08/09 11:27:47;;;;;;;2.17;0.90;;;26.10;99.90;;;;;;4999532;28;20060;-90
2022/08/09 11:30:21;;;;;;;0.70;0.70;;;25.40;99.90;;;;;;4997924;28;20041;-90
2022/08/09 11:32:55;;;;;;;0.80;0.80;;;25.40;99.90;;;;;;5030850;28;20085;-91
2022/08/09 11:35:27;;;;;;;1.45;0.75;;;25.90;99.40;;;;;;5014912;28;20041;-90
2022/08/09 11:37:56;;;;;;;2.05;0.90;;;25.50;99.20;;;;;;5013925;28;20053;-87
2022/08/09 11:40:22;;;;;;;0.80;0.80;;;25.60;99.20;;;;;;5014294;28;20042;-90
2022/08/09 11:42:52;;;;;;;2.35;0.90;;;25.40;99.30;;;;;;5014134;28;20490;-91
2022/08/09 11:45:28;;;;;;;1.30;0.90;;;25.50;99.80;;;;;;4998426;28;20573;-92
2022/08/09 11:48:02;;;;;;;0.98;0.90;;;25.30;99.90;;;;;;5014953;28;20113;-90
2022/08/09 11:50:28;;;;;;;1.90;1.08;;;25.40;99.90;;;;;;4999264;28;20378;-87
2022/08/09 11:53:00;;;;;;;1.63;1.30;;;25.30;99.90;;;;;;5014879;28;20053;-86
2022/08/09 11:55:29;;;;;;;1.02;0.95;;;25.50;99.80;;;;;;5032057;28;20049;-89
2022/08/09 11:57:55;;;;;;;1.00;0.90;;;25.50;99.90;;;;;;5031100;28;20045;-90
2022/08/09 12:00:21;;;;;;;1.30;1.20;;;25.80;99.80;;;;;;5014756;28;20132;-90
2022/08/09 12:02:47;;;;;;;1.25;1.25;;;25.50;99.80;;;;;;5014501;28;20045;-89
2022/08/09 12:05:13;;;;;;;1.10;1.00;;;25.50;99.90;;;;;;4998071;28;20068;-92
2022/08/09 12:07:38;;;;;;;1.00;1.00;;;25.60;99.40;;;;;;5030005;28;20083;-89
2022/08/09 12:10:05;;;;;;;1.13;1.00;;;25.60;99.70;;;;;;5013494;28;20057;-91
2022/08/09 12:12:46;;;;;;;1.35;0.80;;;25.60;99.90;;;;;;4997832;28;20561;-92
2022/08/09 12:15:25;;;;;;;1.17;1.08;;;25.80;99.30;;;;;;5031929;28;20049;-90
2022/08/09 12:17:51;;;;;;;0.90;0.90;;;25.70;99.90;;;;;;4998041;28;20052;-92
2022/08/09 12:20:19;;;;;;;0.93;0.85;;;25.40;99.90;;;;;;5030501;28;20087;-90
2022/08/09 12:22:45;;;;;;;0.90;0.90;;;25.70;99.80;;;;;;4997349;28;20049;-90
2022/08/09 12:25:17;;;;;;;1.00;0.85;;;25.40;99.90;;;;;;5014290;28;20043;-91
2022/08/09 12:27:43;;;;;;;1.13;0.90;;;25.60;99.80;;;;;;4998015;28;20045;-91
2022/08/09 12:30:09;;;;;;;0.98;0.93;;;25.30;99.80;;;;;;5014368;28;20057;-91
2022/08/09 12:32:34;;;;;;;1.00;0.82;;;25.70;99.90;;;;;;5013496;28;20059;-91
2022/08/09 12:35:02;;;;;;;0.88;0.88;;;25.50;99.90;;;;;;5030476;28;20128;-88
2022/08/09 12:37:34;;;;;;;0.90;0.90;;;25.60;99.90;;;;;;5014404;28;20437;-89
2022/08/09 12:40:04;;;;;;;0.75;0.75;;;26.00;99.40;;;;;;5016930;28;20604;-85
2022/08/09 12:42:30;;;;;;;0.75;0.70;;;25.80;99.30;;;;;;5041894;28;20054;-89
2022/08/09 12:44:55;;;;;;;0.88;0.88;;;25.80;99.20;;;;;;5013924;28;20121;-88
2022/08/09 12:47:21;;;;;;;0.80;0.80;;;25.70;99.20;;;;;;5015889;28;20041;-83
2022/08/09 12:50:15;;;;;;;1.02;0.70;;;25.70;98.80;;;;;;5030968;28;20046;-92
2022/08/09 12:52:40;;;;;;;0.70;0.70;;;25.80;99.40;;;;;;5026970;28;20049;-91
2022/08/09 12:55:08;;;;;;;1.10;1.00;;;25.80;99.30;;;;;;4998650;28;20049;-91
2022/08/09 12:57:45;;;;;;;0.70;0.65;;;25.70;99.50;;;;;;5031950;28;20041;-91